Noyes, MN (56740)

12:02 PM CDT on April 24, 2017 (GMT -0500)
St Jean Baptiste MB | | Change Station

Elev 771 ft 49.27 °N, 97.34 °W | Updated 1 minute ago

Snow
Snow
31.9 °F
Feels Like 25 °F
N
7.0
Wind Variable Wind from NNW

Today
High -- | Low -- °F
--% Chance of Precip.
Yesterday
High -- | Low -- °F
Precip. -- in
Pressure 29.73 in
Visibility 0.2 miles
Clouds Overcast 300 ft
Windchill 25 °F
Dew Point 31 °F
Humidity 98%
Rainfall 0.00 in
Snow Depth Not available.
6:19 AM 8:34 PM
Waning Crescent, 5% visible
METAR KHCO 241654Z AUTO 08010KT 1/4SM SN OVC003 01/00 A2973 RMK AO2 P0012
Pressure 29.73 in
Visibility 0.2 miles
Clouds Overcast 300 ft
Windchill 25 °F
Dew Point 31 °F
Humidity 98%
Rainfall 0.00 in
Snow Depth Not available.
6:19 AM 8:34 PM
Waning Crescent, 5% visible
METAR KHCO 241654Z AUTO 08010KT 1/4SM SN OVC003 01/00 A2973 RMK AO2 P0012

Get Severe Weather Alerts

Thanks for signing up!

Be on the lookout for a verification email in your inbox.

You'll start receiving the daily forecast at 8 AM.

×

10-Day Weather Forecast

Almanac

Astronomy

Apr. 24, 2017 Rise Set
Actual Time
Civil Twilight
Nautical Twilight
Astronomical Twilight
Moon
Length of Visible Light
Length of Day
Tomorrow will be .
, % of the Moon is Illuminated

Today's Extremes

State Highs State Lows

Community

WunderPhotos

WunderBlog® & News

Nearby

Air Quality

  Air Quality AQ Index Pollutant
Not available.

Snow Depth

Station Depth Elevation

Earthquake Activity

City Distance Mag. Time & Date
Minimum magnitude displayed is 2.5.

Coastal Water Temperatures

Place Temperature

Stations

Nearby Weather Stations

Station Location Temp. Windchill Dew Point Humidity Wind Precip. Elev Updated Type
                   

Watches & Warnings

There are currently no watches in effect.